createdAt,value
2022-10-29T03:00:15.404Z,11.48
2022-10-29T03:02:43.306Z,10.57
2022-10-29T03:05:11.758Z,13.32
2022-10-29T03:07:39.716Z,9.80
2022-10-29T03:10:09.199Z,12.88
2022-10-29T03:12:37.075Z,11.38
2022-10-29T03:15:05.448Z,10.30
2022-10-29T03:17:34.660Z,15.10
2022-10-29T03:20:02.490Z,12.98
2022-10-29T03:22:30.387Z,12.95
2022-10-29T03:24:58.203Z,16.70
2022-10-29T03:27:39.970Z,10.23
2022-10-29T03:30:09.245Z,10.25
2022-10-29T03:32:40.741Z,14.18
2022-10-29T03:35:09.661Z,10.40
2022-10-29T03:37:38.021Z,10.10
2022-10-29T03:40:06.968Z,11.23
2022-10-29T03:42:34.984Z,17.30
2022-10-29T03:45:03.228Z,11.65
2022-10-29T03:47:31.098Z,11.68
2022-10-29T03:50:00.298Z,11.98
2022-10-29T03:52:28.276Z,8.60
2022-10-29T03:54:56.224Z,10.77
2022-10-29T03:57:24.526Z,13.07
2022-10-29T03:59:52.885Z,9.73
2022-10-29T04:02:20.965Z,13.70
2022-10-29T04:04:49.304Z,9.55
2022-10-29T04:07:18.740Z,11.15
2022-10-29T04:09:46.984Z,12.60
2022-10-29T04:12:21.082Z,9.43
2022-10-29T04:17:22.037Z,13.50
2022-10-29T04:19:49.910Z,11.05
2022-10-29T04:30:46.299Z,10.38
2022-10-29T04:33:14.154Z,15.68
2022-10-29T04:35:42.041Z,9.80
2022-10-29T04:38:12.181Z,11.73
2022-10-29T04:40:40.237Z,8.27
2022-10-29T04:43:08.099Z,10.13
2022-10-29T04:45:36.006Z,9.65
2022-10-29T04:48:05.325Z,10.68
2022-10-29T04:50:34.351Z,10.50
2022-10-29T04:53:03.410Z,8.70
2022-10-29T04:55:33.168Z,10.55
2022-10-29T04:58:01.196Z,11.70
2022-10-29T05:00:29.746Z,10.70
2022-10-29T05:02:58.145Z,11.07
2022-10-29T05:05:28.340Z,11.57
2022-10-29T05:08:00.329Z,13.20
2022-10-29T05:10:31.193Z,12.25
2022-10-29T05:13:01.772Z,13.73
2022-10-29T05:15:30.886Z,11.65
2022-10-29T05:17:59.306Z,12.55
2022-10-29T05:20:28.633Z,10.35
2022-10-29T05:23:00.956Z,13.15
2022-10-29T05:25:30.775Z,7.60
2022-10-29T05:28:08.031Z,9.95
2022-10-29T05:30:37.878Z,10.70
2022-10-29T05:33:07.618Z,15.00
2022-10-29T05:35:36.344Z,9.55
2022-10-29T05:38:04.916Z,11.75
2022-10-29T05:40:34.415Z,10.73
2022-10-29T05:43:02.844Z,10.57
2022-10-29T05:45:32.243Z,7.88
2022-10-29T05:48:01.237Z,12.88
2022-10-29T05:50:30.005Z,8.32
2022-10-29T05:52:58.739Z,10.02
2022-10-29T05:55:28.389Z,13.32
2022-10-29T05:57:57.967Z,9.23
2022-10-29T06:00:26.258Z,11.43
2022-10-29T06:02:56.119Z,9.40
2022-10-29T06:05:24.589Z,11.38
2022-10-29T06:07:55.795Z,9.07
2022-10-29T06:10:24.262Z,9.75
2022-10-29T06:12:52.600Z,12.13
2022-10-29T06:15:20.907Z,10.93
2022-10-29T06:17:49.050Z,11.27
2022-10-29T06:20:20.475Z,10.18
2022-10-29T06:22:48.698Z,8.30
2022-10-29T06:25:16.674Z,13.43
2022-10-29T06:27:44.545Z,13.27
2022-10-29T06:30:13.648Z,14.52
2022-10-29T06:32:41.495Z,15.30
2022-10-29T06:35:10.897Z,16.23
2022-10-29T06:37:40.309Z,13.88
2022-10-29T06:40:36.838Z,14.30
2022-10-29T06:43:06.367Z,12.43
2022-10-29T06:45:35.579Z,11.15
2022-10-29T06:48:05.061Z,11.55
2022-10-29T06:50:34.114Z,9.65
2022-10-29T06:53:04.721Z,11.45
2022-10-29T06:55:33.471Z,11.25
2022-10-29T06:58:02.918Z,11.50
2022-10-29T07:00:32.265Z,13.38
2022-10-29T07:03:01.078Z,9.75
2022-10-29T07:05:29.228Z,11.85
2022-10-29T07:07:58.276Z,11.75
2022-10-29T07:10:29.969Z,11.80
2022-10-29T07:12:58.181Z,10.52
2022-10-29T07:15:27.741Z,9.85
2022-10-29T07:17:59.508Z,10.90
2022-10-29T07:20:30.348Z,12.43
2022-10-29T07:22:59.252Z,8.10
2022-10-29T07:25:28.786Z,12.60
2022-10-29T07:28:03.083Z,8.48
2022-10-29T07:30:31.200Z,12.27
2022-10-29T07:32:59.118Z,15.70
2022-10-29T07:35:27.030Z,10.55
2022-10-29T07:38:03.657Z,14.07
2022-10-29T07:40:40.262Z,10.13
2022-10-29T07:43:08.135Z,12.52
2022-10-29T07:45:36.041Z,9.90
2022-10-29T07:48:07.261Z,12.10
2022-10-29T07:50:35.202Z,15.38
2022-10-29T07:53:03.687Z,10.18
2022-10-29T07:55:31.801Z,11.32
2022-10-29T07:58:02.509Z,11.90
2022-10-29T08:00:31.069Z,10.75
2022-10-29T08:02:59.365Z,12.88
2022-10-29T08:05:28.275Z,12.80
2022-10-29T08:07:56.825Z,14.43
2022-10-29T08:10:25.858Z,13.95
2022-10-29T08:12:56.121Z,12.70
2022-10-29T08:15:26.825Z,13.20
2022-10-29T08:17:55.430Z,14.48
2022-10-29T08:20:24.771Z,12.02
2022-10-29T08:22:52.757Z,11.52
2022-10-29T08:25:21.095Z,15.45
2022-10-29T08:27:59.743Z,14.95
2022-10-29T08:30:29.581Z,15.75
2022-10-29T08:32:57.895Z,11.73
2022-10-29T08:35:26.139Z,13.52
2022-10-29T08:37:54.069Z,15.43
2022-10-29T08:40:32.377Z,13.73
2022-10-29T08:43:31.305Z,15.77
2022-10-29T08:46:00.897Z,14.85
2022-10-29T08:48:38.517Z,14.60
2022-10-29T08:51:14.485Z,13.20
2022-10-29T08:53:53.897Z,14.93
2022-10-29T08:56:35.417Z,14.15
2022-10-29T08:59:08.036Z,15.90
2022-10-29T09:01:37.933Z,15.75
2022-10-29T09:04:21.438Z,17.63
2022-10-29T09:07:03.829Z,16.02
2022-10-29T09:09:39.578Z,12.57
2022-10-29T09:12:50.681Z,14.07
2022-10-29T09:15:26.794Z,22.10
2022-10-29T09:18:09.847Z,19.65
2022-10-29T09:20:47.540Z,14.45
2022-10-29T09:23:29.542Z,9.80
2022-10-29T09:26:03.809Z,15.65
2022-10-29T09:28:44.389Z,12.75
2022-10-29T09:31:23.006Z,16.33
2022-10-29T09:33:56.551Z,14.80
2022-10-29T09:36:27.567Z,13.27
2022-10-29T09:38:58.619Z,17.73
2022-10-29T09:41:31.787Z,13.07
2022-10-29T09:44:04.624Z,16.08
2022-10-29T09:46:39.989Z,14.75
2022-10-29T09:49:23.702Z,10.93
2022-10-29T09:51:55.971Z,13.77
2022-10-29T09:54:25.489Z,13.43
2022-10-29T09:56:56.105Z,17.08
2022-10-29T09:59:30.442Z,16.23
2022-10-29T10:02:00.097Z,16.65
2022-10-29T10:04:33.195Z,15.13
2022-10-29T10:07:07.905Z,15.20
2022-10-29T10:09:52.634Z,14.05
2022-10-29T10:12:22.912Z,16.33
2022-10-29T10:15:02.285Z,10.98
2022-10-29T10:17:38.093Z,17.52
2022-10-29T10:20:28.386Z,14.38
2022-10-29T10:22:56.606Z,16.77
2022-10-29T10:25:37.384Z,14.30
2022-10-29T10:28:19.041Z,19.33
2022-10-29T10:30:47.916Z,13.93
2022-10-29T10:33:25.722Z,16.92
2022-10-29T10:35:55.814Z,16.15
2022-10-29T10:38:23.777Z,15.25
2022-10-29T10:41:01.935Z,17.58
2022-10-29T10:43:29.884Z,17.00
2022-10-29T10:46:00.478Z,21.00
2022-10-29T10:48:33.602Z,21.05
2022-10-29T10:51:20.369Z,18.02
2022-10-29T10:53:48.420Z,16.70
2022-10-29T10:56:19.703Z,16.50
2022-10-29T10:58:57.272Z,19.42
2022-10-29T11:01:30.868Z,16.45
2022-10-29T11:04:03.557Z,19.38
2022-10-29T11:06:36.159Z,19.27
2022-10-29T11:09:09.648Z,16.58
2022-10-29T11:11:41.562Z,17.67
2022-10-29T11:14:16.201Z,17.35
2022-10-29T11:16:49.619Z,15.88
2022-10-29T11:19:25.417Z,22.15
2022-10-29T11:22:03.845Z,19.92
2022-10-29T11:24:43.609Z,18.55
2022-10-29T11:27:24.807Z,19.23
2022-10-29T11:29:59.083Z,14.48
2022-10-29T11:32:34.239Z,17.42
2022-10-29T11:35:05.984Z,15.45
2022-10-29T11:37:43.898Z,13.68
2022-10-29T11:40:15.068Z,16.40
2022-10-29T11:42:43.035Z,17.30
2022-10-29T11:45:14.687Z,16.40
2022-10-29T11:48:06.214Z,18.27
2022-10-29T11:50:42.159Z,18.17
2022-10-29T11:53:24.405Z,15.60
2022-10-29T11:56:05.782Z,15.60
2022-10-29T11:58:40.863Z,12.00
2022-10-29T12:01:17.743Z,17.40
2022-10-29T12:06:54.938Z,16.30
2022-10-29T12:09:44.455Z,18.90
2022-10-29T12:12:18.290Z,23.95
2022-10-29T12:14:52.976Z,33.85
2022-10-29T12:17:27.067Z,33.30
2022-10-29T12:20:01.419Z,33.90
2022-10-29T12:22:38.819Z,37.20
2022-10-29T12:25:29.914Z,46.20
2022-10-29T12:28:10.209Z,33.22
2022-10-29T12:30:45.421Z,31.08
2022-10-29T12:33:20.085Z,29.80
2022-10-29T12:35:52.004Z,27.25
2022-10-29T12:38:33.814Z,28.30
2022-10-29T12:41:06.618Z,29.77
2022-10-29T12:43:37.618Z,23.65
2022-10-29T12:46:20.687Z,31.48
2022-10-29T12:48:59.193Z,29.42
2022-10-29T12:51:35.447Z,25.92
2022-10-29T12:54:21.691Z,29.42
2022-10-29T12:56:51.317Z,22.92
2022-10-29T12:59:30.580Z,22.88
2022-10-29T13:02:20.564Z,24.38
2022-10-29T13:05:20.124Z,20.55
2022-10-29T13:08:11.381Z,31.73
2022-10-29T13:10:55.158Z,20.67
2022-10-29T13:13:39.020Z,18.70
2022-10-29T13:16:15.173Z,18.75
2022-10-29T13:18:52.105Z,16.10
2022-10-29T13:21:57.686Z,19.92
2022-10-29T13:24:26.123Z,18.77
2022-10-29T13:27:09.517Z,17.60
2022-10-29T13:30:10.176Z,16.83
2022-10-29T13:32:40.024Z,18.15
2022-10-29T13:35:42.670Z,18.23
2022-10-29T13:38:13.160Z,15.40
2022-10-29T13:40:57.073Z,16.23
2022-10-29T13:43:25.380Z,16.25
2022-10-29T13:46:03.499Z,16.48
2022-10-29T13:48:36.460Z,13.15
2022-10-29T13:51:08.438Z,13.52
2022-10-29T13:53:44.121Z,12.40
2022-10-29T13:56:17.971Z,20.88
2022-10-29T13:58:48.997Z,11.48
2022-10-29T14:01:20.859Z,14.38
2022-10-29T14:04:00.298Z,13.13
2022-10-29T14:06:32.538Z,12.00
2022-10-29T14:09:12.817Z,14.38
2022-10-29T14:11:44.530Z,11.85
2022-10-29T14:14:26.865Z,14.68
2022-10-29T14:17:10.527Z,16.02
2022-10-29T14:19:44.662Z,13.48
2022-10-29T14:22:38.078Z,14.20
2022-10-29T14:25:28.264Z,15.20
2022-10-29T14:28:17.408Z,14.98
2022-10-29T14:30:48.815Z,14.15
2022-10-29T14:33:24.675Z,15.82
2022-10-29T14:35:55.619Z,14.82
2022-10-29T14:38:33.406Z,11.55
2022-10-29T14:41:01.728Z,18.52
2022-10-29T14:43:30.375Z,18.17
2022-10-29T14:46:11.744Z,18.65
2022-10-29T14:48:40.701Z,17.45
2022-10-29T14:51:19.648Z,18.23
2022-10-29T14:53:52.905Z,18.70
2022-10-29T14:56:22.680Z,16.63
2022-10-29T14:58:50.717Z,16.98
2022-10-29T15:01:20.390Z,20.63
2022-10-29T15:03:49.086Z,18.30
2022-10-29T15:06:20.216Z,21.60
2022-10-29T15:08:56.615Z,30.17
2022-10-29T15:11:36.967Z,20.98
2022-10-29T15:14:22.611Z,21.05
2022-10-29T15:16:50.626Z,22.23
2022-10-29T15:19:19.390Z,20.20
2022-10-29T15:21:48.630Z,18.90
2022-10-29T15:24:20.762Z,18.55
2022-10-29T15:26:51.666Z,22.73
2022-10-29T15:29:29.176Z,20.17
2022-10-29T15:32:00.399Z,21.60
2022-10-29T15:34:35.073Z,23.70
2022-10-29T15:37:24.997Z,23.40
2022-10-29T15:40:13.218Z,20.88
2022-10-29T15:42:41.449Z,23.85
2022-10-29T15:45:30.570Z,24.35
2022-10-29T15:48:19.160Z,23.00
2022-10-29T15:50:48.413Z,25.98
2022-10-29T15:53:17.593Z,22.15
2022-10-29T15:55:46.028Z,18.23
2022-10-29T15:58:15.975Z,25.95
2022-10-29T16:00:44.005Z,21.77
2022-10-29T16:03:15.746Z,20.85
2022-10-29T16:05:45.803Z,26.23
2022-10-29T16:08:24.395Z,25.13
2022-10-29T16:10:52.851Z,20.92
2022-10-29T16:13:21.624Z,25.52
2022-10-29T16:15:49.501Z,26.48
2022-10-29T16:18:17.340Z,27.70
2022-10-29T16:20:45.261Z,30.17
2022-10-29T16:23:14.088Z,26.30
2022-10-29T16:25:43.315Z,32.00
2022-10-29T16:28:11.493Z,33.83
2022-10-29T16:33:12.992Z,32.88
2022-10-29T16:35:40.880Z,29.33
2022-10-29T16:38:08.709Z,27.08
2022-10-29T16:40:36.581Z,28.25
2022-10-29T16:43:06.316Z,31.05
2022-10-29T16:45:34.193Z,27.70
2022-10-29T16:48:02.271Z,39.65
2022-10-29T16:50:32.383Z,33.05
2022-10-29T16:53:01.702Z,26.85
2022-10-29T16:55:30.828Z,52.17
2022-10-29T16:58:02.853Z,60.53
2022-10-29T17:00:33.100Z,71.93
2022-10-29T17:03:04.977Z,72.45
2022-10-29T17:05:37.000Z,65.90
2022-10-29T17:08:05.805Z,77.60
2022-10-29T17:10:33.856Z,68.30
2022-10-29T17:13:02.273Z,67.25
2022-10-29T17:15:32.023Z,65.13
2022-10-29T17:18:05.389Z,61.10
2022-10-29T17:20:33.410Z,64.40
2022-10-29T17:23:01.271Z,49.05
2022-10-29T17:25:29.255Z,52.78
2022-10-29T17:28:00.427Z,56.53
2022-10-29T17:30:28.575Z,59.67
2022-10-29T17:33:00.247Z,53.00
2022-10-29T17:35:28.423Z,49.95
2022-10-29T17:37:56.346Z,41.60
2022-10-29T17:40:26.307Z,36.97
2022-10-29T17:42:54.556Z,35.25
2022-10-29T17:45:23.775Z,31.45
2022-10-29T17:47:56.242Z,29.60
2022-10-29T17:50:35.194Z,28.99
2022-10-29T17:53:10.013Z,27.90
2022-10-29T17:55:37.911Z,32.00
2022-10-29T17:58:05.780Z,31.92
2022-10-29T18:00:33.746Z,28.83
2022-10-29T18:03:01.660Z,28.77
2022-10-29T18:05:31.045Z,28.95
2022-10-29T18:08:00.484Z,29.48
2022-10-29T18:10:37.757Z,27.45
2022-10-29T18:13:05.623Z,29.27
2022-10-29T18:15:35.506Z,25.02
2022-10-29T18:18:03.438Z,24.75
2022-10-29T18:20:35.263Z,24.00
2022-10-29T18:23:04.887Z,25.55
2022-10-29T18:25:32.810Z,22.40
2022-10-29T18:28:00.747Z,31.58
2022-10-29T18:30:28.625Z,31.02
2022-10-29T18:33:05.679Z,31.05
2022-10-29T18:35:35.987Z,28.75
2022-10-29T18:38:05.697Z,23.02
2022-10-29T18:40:36.950Z,23.40
2022-10-29T18:43:05.859Z,27.77
2022-10-29T18:45:33.989Z,29.75
2022-10-29T18:48:06.850Z,29.80
2022-10-29T18:50:35.788Z,30.85
2022-10-29T18:53:05.152Z,31.90
2022-10-29T18:55:33.022Z,30.45
2022-10-29T18:58:01.070Z,31.05
2022-10-29T19:00:29.161Z,30.83
2022-10-29T19:02:57.595Z,28.98
2022-10-29T19:05:25.830Z,25.08
2022-10-29T19:07:56.012Z,30.45
2022-10-29T19:10:25.624Z,30.75
2022-10-29T19:12:53.812Z,28.42
2022-10-29T19:15:21.759Z,26.73
2022-10-29T19:17:49.995Z,29.60
2022-10-29T19:20:18.906Z,25.98
2022-10-29T19:22:47.869Z,27.38
2022-10-29T19:25:15.917Z,21.48
2022-10-29T19:27:45.429Z,22.38
2022-10-29T19:30:13.962Z,20.60
2022-10-29T19:32:41.858Z,19.75
2022-10-29T19:35:10.797Z,24.67
2022-10-29T19:37:38.990Z,18.08
2022-10-29T19:40:08.821Z,21.30
2022-10-29T19:42:36.929Z,24.85
2022-10-29T19:45:07.283Z,24.50
2022-10-29T19:47:35.667Z,23.23
2022-10-29T19:50:05.690Z,24.85
2022-10-29T19:52:33.746Z,28.08
2022-10-29T19:55:01.775Z,22.23
2022-10-29T19:57:29.648Z,27.27
2022-10-29T19:59:59.439Z,28.30
2022-10-29T20:02:32.573Z,32.28
2022-10-29T20:05:05.678Z,37.35
2022-10-29T20:07:33.743Z,32.33
2022-10-29T20:10:01.825Z,29.60
2022-10-29T20:12:30.240Z,35.05
2022-10-29T20:14:59.212Z,29.45
2022-10-29T20:17:27.057Z,23.13
2022-10-29T20:19:58.706Z,25.02
2022-10-29T20:22:26.577Z,25.27
2022-10-29T20:24:54.942Z,23.73
2022-10-29T20:27:22.807Z,25.45
2022-10-29T20:29:50.857Z,25.30
2022-10-29T20:32:18.753Z,29.42
2022-10-29T20:34:46.721Z,26.67
2022-10-29T20:37:15.938Z,24.85
2022-10-29T20:39:43.831Z,21.95
2022-10-29T20:42:11.778Z,25.95
2022-10-29T20:44:39.769Z,27.58
2022-10-29T20:47:07.831Z,29.75
2022-10-29T20:49:35.718Z,23.70
2022-10-29T20:52:04.090Z,25.80
2022-10-29T20:54:33.378Z,28.15
2022-10-29T20:57:01.251Z,26.20
2022-10-29T20:59:29.123Z,27.20
2022-10-29T21:01:58.531Z,25.98
2022-10-29T21:04:26.497Z,28.83
2022-10-29T21:06:54.346Z,28.58
2022-10-29T21:09:23.175Z,26.05
2022-10-29T21:11:52.384Z,26.00
2022-10-29T21:14:20.309Z,28.77
2022-10-29T21:16:48.180Z,28.83
2022-10-29T21:19:16.036Z,35.30
2022-10-29T21:21:43.884Z,26.20
2022-10-29T21:24:11.809Z,29.52
2022-10-29T21:26:39.650Z,25.17
2022-10-29T21:29:08.958Z,29.20
2022-10-29T21:31:36.797Z,22.80
2022-10-29T21:34:04.679Z,23.55
2022-10-29T21:36:32.617Z,25.48
2022-10-29T21:39:00.509Z,22.80
2022-10-29T21:41:28.410Z,26.15
2022-10-29T21:43:56.297Z,24.20
2022-10-29T21:46:25.511Z,27.50
2022-10-29T21:48:55.453Z,24.58
2022-10-29T21:51:23.303Z,26.48
2022-10-29T21:53:51.169Z,21.17
2022-10-29T21:56:19.495Z,22.33
2022-10-29T21:58:47.504Z,21.00
